Fountain Hills, AZ (85269)

9:43 PM MST on September 16, 2019 (GMT -0700)
East-Central Scottsdale, AZ | | Change Station

Elev 1266 ft 33.51 °N, 111.89 °W | Updated 2 seconds ago

Rain
Rain
74.3 °F
Feels Like 76 °F
N
0
Wind Variable Wind from SSE
Gusts 0.0 mph

Today
High -- | Low -- °F
--% Chance of Precip.
Yesterday
High -- | Low -- °F
Precip. -- in
Pressure 29.94 in
Visibility 10.0 miles
Clouds Few 6500 ft
Mostly Cloudy 9500 ft
Mostly Cloudy 12000 ft
Heat Index 76 °F
Dew Point 63 °F
Humidity 68%
Rainfall 0.17 in
Snow Depth Not available.
6:11 AM 6:32 PM
Waning Gibbous, 92% visible
SPECI KSDL 170441Z AUTO 15011G20KT 10SM VCTS -RA FEW065 BKN095 BKN120 26/15 A2994 RMK AO2 WSHFT 0421 LTG DSNT NW RAB00 P0000 T02610150
Pressure 29.94 in
Visibility 10.0 miles
Clouds Few 6500 ft
Mostly Cloudy 9500 ft
Mostly Cloudy 12000 ft
Heat Index 76 °F
Dew Point 63 °F
Humidity 68%
Rainfall 0.17 in
Snow Depth Not available.
6:11 AM 6:32 PM
Waning Gibbous, 92% visible
SPECI KSDL 170441Z AUTO 15011G20KT 10SM VCTS -RA FEW065 BKN095 BKN120 26/15 A2994 RMK AO2 WSHFT 0421 LTG DSNT NW RAB00 P0000 T02610150

Get Severe Weather Alerts

Thanks for signing up!

Be on the lookout for a verification email in your inbox.

You'll start receiving the daily forecast at 6 AM.

×

10-Day Weather Forecast

Almanac

Astronomy

Sep. 16, 2019 Rise Set
Actual Time
Civil Twilight
Nautical Twilight
Astronomical Twilight
Moon
Length of Visible Light
Length of Day
Tomorrow will be .
, % of the Moon is Illuminated

Today's Extremes

State Highs State Lows

Community

WunderPhotos

Category 6

Welcome to Category 6. This is the collective home for Weather Underground's featured writeups by Dr. Jeff Masters (right), Bob Henson (left), Chris Burt, and other regular contributors.

Nearby

Air Quality

  Air Quality AQ Index Pollutant
Not available.

Snow Depth

Station Depth Elevation

Earthquake Activity

City Distance Mag. Time & Date
Minimum magnitude displayed is 2.5.

Coastal Water Temperatures

Place Temperature

Stations

Nearby Weather Stations

Station Location Temp. Windchill Dew Point Humidity Wind Precip. Elev Updated Type
                   

Watches & Warnings

There are currently no watches in effect.